Aubrey, Texas
Current Conditions -  °F | °C
As of 2:53 PM on Monday 24 Nov 2014 (Local Time) from KDTO Reporting Station
Clear Clear  
Wind Chill: 61°   Ceiling: Unl
Heat Index: 61°   Visibility: 10mi
Dew Point: 20°   Wind: 10mph
Humidity: 21%   Direction: 300°WNW
Pressure: 30.03"   Gusts: NA
Location:  33.3°N, 96.99°W
Report Text: KDTO 242053Z 30009KT 10SM CLR 16/M07 A3003 RMK AO2 SLP168 T01611067 56006
Loading
Personal Weather Stations






























Interactive Weather Map New forecast layout! Learn more

10-Day Weather Forecast

Advertisements
Track Severe Weather on mobile